Startpagina
METAR-TAF:

METAR-TAF

Vliegvelden :

Bahrein, Bahrein

Internationale luchthaven van Bahrein

breedte: 26-16N, lengte: 050-39E, hoogte: 2 m

Actueel weer

Dit bericht is 11 minuten geleden gemaakt, om 21:00 UTC
Wind 19 kt uit het noordwesten
Temperatuur 18°C
Vochtigheid 52%
Druk 1018 hPa
Zicht 10 km of meer
geen wolken onder 1500 m en geen cumulonimbus

METAR: OBBI 162100Z 32019KT CAVOK 18/08 Q1018 NOSIG

Tijdstip: 00:11 (21:11 UTC)

Verwachting

Dit bericht is 4 uur en het 11 minuten geleden gemaakt, om 17:00 UTC
Verwachting geldig van 16 om 18 UTC tot 18 om 00 UTC
Wind 15 kt uit het noordnoordwesten met uitschieters tot 25 kt
Zicht 10 km of meer
Weinig wolken op 3000 ft
Wijzigt naar
van 17 om 03 UTC tot 17 om 05 UTC
Wind 15 kt uit het noordnoordwesten

TAF: OBBI 161700Z 1618/1800 33015G25KT 9999 FEW030 BECMG 1703/1705 33015KT

Waarnemingen en weersverwachtingen van meer dan 4000 vliegvelden (METAR en TAF).

De beschikbare stations zijn de gele en rode punten op de kaart.

Ga met uw muis naar het station om de naam te zien.

Klik dan om waarnemingen en weersverwachtingen te zien.

kaart wijzigen: klik op de groene knoppen met een zwart kruis om in te zoomen, op de groene knop met een streepje om uit te zoomen of op de groene pijlen voor aangrenzende kaarten.


METAR-TAF: